createdAt,value
2018-02-21T00:01:26.879Z,-0.38
2018-02-21T00:03:56.695Z,-0.36
2018-02-21T00:06:26.536Z,-0.31
2018-02-21T00:08:56.361Z,-0.25
2018-02-21T00:11:26.192Z,-0.20
2018-02-21T00:13:56.076Z,-0.23
2018-02-21T00:16:25.965Z,-0.10
2018-02-21T00:18:56.113Z,-0.19
2018-02-21T00:21:26.117Z,-0.19
2018-02-21T00:23:55.935Z,-0.16
2018-02-21T00:26:25.512Z,-0.10
2018-02-21T00:28:55.348Z,-0.10
2018-02-21T00:31:25.138Z,-0.14
2018-02-21T00:33:54.963Z,-0.08
2018-02-21T00:36:24.813Z,-0.08
2018-02-21T00:38:54.616Z,-0.14
2018-02-21T00:41:24.444Z,-0.18
2018-02-21T00:43:54.249Z,-0.20
2018-02-21T00:46:24.060Z,-0.19
2018-02-21T00:48:56.145Z,-0.17
2018-02-21T00:51:26.503Z,-0.17
2018-02-21T00:53:56.528Z,-0.16
2018-02-21T00:56:26.349Z,-0.14
2018-02-21T00:58:56.172Z,-0.10
2018-02-21T01:01:25.980Z,-0.08
2018-02-21T01:03:55.815Z,-0.03
2018-02-21T01:06:25.617Z,0.05
2018-02-21T01:08:55.444Z,0.05
2018-02-21T01:11:25.248Z,0.08
2018-02-21T01:13:55.128Z,0.07
2018-02-21T01:16:25.001Z,0.13
2018-02-21T01:18:54.845Z,0.15
2018-02-21T01:21:24.666Z,0.15
2018-02-21T01:23:54.493Z,0.22
2018-02-21T01:26:24.303Z,0.17
2018-02-21T01:28:54.100Z,0.31
2018-02-21T01:31:23.912Z,0.22
2018-02-21T01:33:54.031Z,0.19
2018-02-21T01:36:23.849Z,0.38
2018-02-21T01:38:53.423Z,0.35
2018-02-21T01:41:23.236Z,0.53
2018-02-21T01:43:53.066Z,0.46
2018-02-21T01:46:22.905Z,0.45
2018-02-21T01:48:52.703Z,0.51
2018-02-21T01:51:22.541Z,0.40
2018-02-21T01:53:52.372Z,0.35
2018-02-21T01:56:22.175Z,0.29
2018-02-21T01:58:52.037Z,0.29
2018-02-21T02:01:21.848Z,0.25
2018-02-21T02:03:51.666Z,0.24
2018-02-21T02:06:21.503Z,0.33
2018-02-21T02:08:51.366Z,0.31
2018-02-21T02:11:21.206Z,0.26
2018-02-21T02:16:26.068Z,0.22
2018-02-21T02:18:55.897Z,0.22
2018-02-21T02:21:25.883Z,0.24
2018-02-21T02:23:55.714Z,0.27
2018-02-21T02:26:25.505Z,0.36
2018-02-21T02:28:55.319Z,0.36
2018-02-21T02:31:25.187Z,0.37
2018-02-21T02:33:54.984Z,0.37
2018-02-21T02:36:24.777Z,0.35
2018-02-21T02:39:05.728Z,0.34
2018-02-21T02:41:35.244Z,0.49
2018-02-21T02:44:05.123Z,0.67
2018-02-21T02:46:34.693Z,0.54
2018-02-21T02:49:04.491Z,0.47
2018-02-21T02:51:42.490Z,0.42
2018-02-21T02:54:12.293Z,0.41
2018-02-21T02:56:42.098Z,0.38
2018-02-21T02:59:11.911Z,0.42
2018-02-21T03:01:41.711Z,0.52
2018-02-21T03:04:11.531Z,0.57
2018-02-21T03:06:41.345Z,0.55
2018-02-21T03:09:11.205Z,0.52
2018-02-21T03:11:40.740Z,0.50
2018-02-21T03:14:10.562Z,0.45
2018-02-21T03:16:40.381Z,0.45
2018-02-21T03:19:10.176Z,0.47
2018-02-21T03:21:39.995Z,0.52
2018-02-21T03:24:09.799Z,0.46
2018-02-21T03:26:39.640Z,0.41
2018-02-21T03:29:09.454Z,0.40
2018-02-21T03:31:39.495Z,0.43
2018-02-21T03:34:09.332Z,0.51
2018-02-21T03:36:39.141Z,0.50
2018-02-21T03:39:08.972Z,0.49
2018-02-21T03:41:46.046Z,0.47
2018-02-21T03:46:52.361Z,0.48
2018-02-21T03:49:22.176Z,0.41
2018-02-21T03:51:51.976Z,0.49
2018-02-21T03:54:22.063Z,0.46
2018-02-21T03:56:51.850Z,0.56
2018-02-21T03:59:21.663Z,0.51
2018-02-21T04:01:51.480Z,0.67
2018-02-21T04:04:21.276Z,0.65
2018-02-21T04:06:51.084Z,0.62
2018-02-21T04:09:20.617Z,0.57
2018-02-21T04:11:50.436Z,0.61
2018-02-21T04:14:20.045Z,0.56
2018-02-21T04:16:49.895Z,0.57
2018-02-21T04:19:19.706Z,0.54
2018-02-21T04:21:49.517Z,0.44
2018-02-21T04:24:19.329Z,0.45
2018-02-21T04:26:49.153Z,0.49
2018-02-21T04:29:18.952Z,0.45
2018-02-21T04:31:48.744Z,0.44
2018-02-21T04:34:18.581Z,0.46
2018-02-21T04:36:49.129Z,0.46
2018-02-21T04:39:18.959Z,0.49
2018-02-21T04:41:48.579Z,0.42
2018-02-21T04:44:18.390Z,0.34
2018-02-21T04:46:48.223Z,0.29
2018-02-21T04:49:18.013Z,0.30
2018-02-21T04:51:47.889Z,0.28
2018-02-21T04:54:23.119Z,0.38
2018-02-21T04:56:58.128Z,0.44
2018-02-21T04:59:33.294Z,0.41
2018-02-21T05:02:02.901Z,0.43
2018-02-21T05:04:32.773Z,0.35
2018-02-21T05:07:02.441Z,0.29
2018-02-21T05:09:32.242Z,0.23
2018-02-21T05:12:02.058Z,0.21
2018-02-21T05:14:31.873Z,0.23
2018-02-21T05:17:01.963Z,0.23
2018-02-21T05:19:31.791Z,0.18
2018-02-21T05:22:01.597Z,0.36
2018-02-21T05:24:31.427Z,0.27
2018-02-21T05:27:01.301Z,0.23
2018-02-21T05:29:32.381Z,0.27
2018-02-21T05:32:02.249Z,0.22
2018-02-21T05:34:36.533Z,0.23
2018-02-21T05:37:06.335Z,0.18
2018-02-21T05:39:39.997Z,0.19
2018-02-21T05:42:09.798Z,0.09
2018-02-21T05:44:39.607Z,0.09
2018-02-21T05:47:09.450Z,0.05
2018-02-21T05:49:39.282Z,0.12
2018-02-21T05:52:09.134Z,0.09
2018-02-21T05:54:38.913Z,0.13
2018-02-21T05:57:08.728Z,0.11
2018-02-21T05:59:38.537Z,0.15
2018-02-21T06:02:08.418Z,0.09
2018-02-21T06:04:38.412Z,0.03
2018-02-21T06:07:08.308Z,0.04
2018-02-21T06:09:38.211Z,0.09
2018-02-21T06:12:08.049Z,0.12
2018-02-21T06:14:37.961Z,0.20
2018-02-21T06:17:07.928Z,0.16
2018-02-21T06:19:37.897Z,0.13
2018-02-21T06:22:07.845Z,0.17
2018-02-21T06:24:37.897Z,0.14
2018-02-21T06:27:07.920Z,0.23
2018-02-21T06:29:37.755Z,0.27
2018-02-21T06:32:07.775Z,0.19
2018-02-21T06:34:37.799Z,0.18
2018-02-21T06:37:07.686Z,0.16
2018-02-21T06:39:37.647Z,0.24
2018-02-21T06:42:07.578Z,0.20
2018-02-21T06:44:37.723Z,0.28
2018-02-21T06:47:07.878Z,0.31
2018-02-21T06:49:37.860Z,0.43
2018-02-21T06:52:07.872Z,0.40
2018-02-21T06:54:37.874Z,0.41
2018-02-21T06:57:07.921Z,0.42
2018-02-21T06:59:37.827Z,0.41
2018-02-21T07:02:07.153Z,0.49
2018-02-21T07:04:36.841Z,0.56
2018-02-21T07:07:08.108Z,0.67
2018-02-21T07:09:40.318Z,0.68
2018-02-21T07:12:10.179Z,0.74
2018-02-21T07:14:40.198Z,0.77
2018-02-21T07:17:10.222Z,0.78
2018-02-21T07:19:40.566Z,0.76
2018-02-21T07:22:10.767Z,0.85
2018-02-21T07:24:50.417Z,1.01
2018-02-21T07:27:22.353Z,1.05
2018-02-21T07:29:57.775Z,0.94
2018-02-21T07:32:27.978Z,1.05
2018-02-21T07:34:57.873Z,1.09
2018-02-21T07:37:27.987Z,1.13
2018-02-21T07:39:57.841Z,1.39
2018-02-21T07:42:27.792Z,1.40
2018-02-21T07:44:57.670Z,1.49
2018-02-21T07:47:27.591Z,1.41
2018-02-21T07:49:57.549Z,1.37
2018-02-21T07:52:27.725Z,1.46
2018-02-21T07:54:58.721Z,1.24
2018-02-21T07:57:28.725Z,1.38
2018-02-21T07:59:58.913Z,1.41
2018-02-21T08:02:28.757Z,1.39
2018-02-21T08:04:58.922Z,1.43
2018-02-21T08:07:29.064Z,1.68
2018-02-21T08:09:58.801Z,1.63
2018-02-21T08:12:28.991Z,1.68
2018-02-21T08:14:58.829Z,1.97
2018-02-21T08:17:34.379Z,1.83
2018-02-21T08:20:07.500Z,1.95
2018-02-21T08:22:37.404Z,2.30
2018-02-21T08:25:07.317Z,2.12
2018-02-21T08:27:56.120Z,2.62
2018-02-21T08:30:27.857Z,2.96
2018-02-21T08:32:58.030Z,3.05
2018-02-21T08:35:28.979Z,2.93
2018-02-21T08:38:00.789Z,2.82
2018-02-21T08:40:31.853Z,3.30
2018-02-21T08:43:02.556Z,3.50
2018-02-21T08:45:33.170Z,3.89
2018-02-21T08:48:03.232Z,4.22
2018-02-21T08:50:33.085Z,4.42
2018-02-21T08:53:34.741Z,4.22
2018-02-21T08:56:06.283Z,4.79
2018-02-21T08:58:36.301Z,4.86
2018-02-21T09:01:06.438Z,4.50
2018-02-21T09:03:36.426Z,5.25
2018-02-21T09:06:07.344Z,4.99
2018-02-21T09:08:37.235Z,4.64
2018-02-21T09:11:07.383Z,4.77
2018-02-21T09:13:37.306Z,4.61
2018-02-21T09:16:07.262Z,4.05
2018-02-21T09:18:37.157Z,4.04
2018-02-21T09:21:07.139Z,4.21
2018-02-21T09:23:37.040Z,4.21
2018-02-21T09:26:11.136Z,3.99
2018-02-21T09:28:42.190Z,4.57
2018-02-21T09:31:12.637Z,4.57
2018-02-21T09:33:43.000Z,5.61
2018-02-21T09:36:13.357Z,5.95
2018-02-21T09:38:43.206Z,6.64
2018-02-21T09:41:13.134Z,6.47
2018-02-21T09:43:44.548Z,6.90
2018-02-21T09:46:17.939Z,7.51
2018-02-21T09:48:47.901Z,8.15
2018-02-21T09:51:17.799Z,8.25
2018-02-21T09:53:47.777Z,8.87
2018-02-21T09:56:23.543Z,9.76
2018-02-21T09:59:16.073Z,11.74
2018-02-21T10:01:46.004Z,12.97
2018-02-21T10:04:15.509Z,12.82
2018-02-21T10:06:45.470Z,11.99
2018-02-21T10:09:15.120Z,12.20
2018-02-21T10:11:44.940Z,11.93
2018-02-21T10:14:14.802Z,11.09
2018-02-21T10:16:44.649Z,10.48
2018-02-21T10:19:14.375Z,10.07
2018-02-21T10:21:44.161Z,10.16
2018-02-21T10:24:14.370Z,10.63
2018-02-21T10:26:44.198Z,10.33
2018-02-21T10:29:13.992Z,9.86
2018-02-21T10:31:43.821Z,10.28
2018-02-21T10:34:13.634Z,7.50
2018-02-21T10:36:43.485Z,9.08
2018-02-21T10:39:13.350Z,10.07
2018-02-21T10:41:43.185Z,10.48
2018-02-21T10:44:13.309Z,9.60
2018-02-21T10:46:43.438Z,11.39
2018-02-21T10:49:13.419Z,10.48
2018-02-21T10:51:43.361Z,11.01
2018-02-21T10:54:13.166Z,10.88
2018-02-21T10:56:43.010Z,10.98
2018-02-21T10:59:12.822Z,9.06
2018-02-21T11:01:43.074Z,10.65
2018-02-21T11:04:12.885Z,12.48
2018-02-21T11:06:42.696Z,11.19
2018-02-21T11:09:12.728Z,12.50
2018-02-21T11:11:42.588Z,12.67
2018-02-21T11:14:12.411Z,12.01
2018-02-21T11:16:42.801Z,11.40
2018-02-21T11:19:12.931Z,11.66
2018-02-21T11:21:42.885Z,11.40
2018-02-21T11:24:12.705Z,12.21
2018-02-21T11:26:42.533Z,12.06
2018-02-21T11:29:12.403Z,11.29
2018-02-21T11:31:42.224Z,11.41
2018-02-21T11:34:12.168Z,10.17
2018-02-21T11:36:41.845Z,11.50
2018-02-21T11:39:11.690Z,13.42
2018-02-21T11:41:41.498Z,12.96
2018-02-21T11:44:11.343Z,11.82
2018-02-21T11:46:41.167Z,10.26
2018-02-21T11:49:11.072Z,7.56
2018-02-21T11:51:40.892Z,9.98
2018-02-21T11:54:10.792Z,8.20
2018-02-21T11:56:40.614Z,9.32
2018-02-21T11:59:10.401Z,9.74
2018-02-21T12:01:40.213Z,9.53
2018-02-21T12:04:10.045Z,9.86
2018-02-21T12:06:40.400Z,10.12
2018-02-21T12:09:10.217Z,9.05
2018-02-21T12:11:40.136Z,10.52
2018-02-21T12:14:10.072Z,12.57
2018-02-21T12:16:39.888Z,14.89
2018-02-21T12:19:10.038Z,15.97
2018-02-21T12:21:39.621Z,15.87
2018-02-21T12:24:09.220Z,18.19
2018-02-21T12:26:38.793Z,16.42
2018-02-21T12:29:08.412Z,17.97
2018-02-21T12:31:37.840Z,15.35
2018-02-21T12:34:07.408Z,18.21
2018-02-21T12:36:36.968Z,19.27
2018-02-21T12:39:11.641Z,15.60
2018-02-21T12:41:45.111Z,15.25
2018-02-21T12:44:14.849Z,15.08
2018-02-21T12:46:44.364Z,13.06
2018-02-21T12:49:13.950Z,13.10
2018-02-21T12:51:43.790Z,11.96
2018-02-21T12:54:13.634Z,9.70
2018-02-21T12:56:43.541Z,8.82
2018-02-21T12:59:13.374Z,10.24
2018-02-21T13:01:43.190Z,9.67
2018-02-21T13:04:13.038Z,9.62
2018-02-21T13:06:43.124Z,9.51
2018-02-21T13:09:13.011Z,9.96
2018-02-21T13:11:42.817Z,9.62
2018-02-21T13:14:12.743Z,8.49
2018-02-21T13:16:42.721Z,9.36
2018-02-21T13:19:12.588Z,10.69
2018-02-21T13:21:42.426Z,11.08
2018-02-21T13:24:12.286Z,12.40
2018-02-21T13:26:42.181Z,11.62
2018-02-21T13:29:12.124Z,10.99
2018-02-21T13:31:42.158Z,9.11
2018-02-21T13:34:12.148Z,11.16
2018-02-21T13:36:42.013Z,10.59
2018-02-21T13:39:12.154Z,10.77
2018-02-21T13:41:42.026Z,9.72
2018-02-21T13:44:11.963Z,9.26
2018-02-21T13:46:41.795Z,9.17
2018-02-21T13:49:11.680Z,8.53
2018-02-21T13:51:41.519Z,8.10
2018-02-21T13:54:11.440Z,7.75
2018-02-21T13:56:41.812Z,6.90
2018-02-21T13:59:11.747Z,6.34
2018-02-21T14:01:41.586Z,6.61
2018-02-21T14:04:11.942Z,6.44
2018-02-21T14:06:42.023Z,6.46
2018-02-21T14:09:11.958Z,6.23
2018-02-21T14:11:42.114Z,6.20
2018-02-21T14:14:13.049Z,6.13
2018-02-21T14:16:43.884Z,5.88
2018-02-21T14:19:13.784Z,5.59
2018-02-21T14:21:43.890Z,5.38
2018-02-21T14:24:13.750Z,5.23
2018-02-21T14:26:43.679Z,4.91
2018-02-21T14:29:13.606Z,4.82
2018-02-21T14:31:43.518Z,4.82
2018-02-21T14:34:13.442Z,4.81
2018-02-21T14:36:43.967Z,4.68
2018-02-21T14:39:13.925Z,4.49
2018-02-21T14:41:44.258Z,4.64
2018-02-21T14:44:15.948Z,4.44
2018-02-21T14:46:47.059Z,4.28
2018-02-21T14:49:17.833Z,4.37
2018-02-21T14:51:47.918Z,4.38
2018-02-21T14:54:17.923Z,4.20
2018-02-21T14:56:47.856Z,4.18
2018-02-21T14:59:17.917Z,4.09
2018-02-21T15:01:50.489Z,4.24
2018-02-21T15:04:25.353Z,4.14
2018-02-21T15:06:55.263Z,3.92
2018-02-21T15:09:25.214Z,4.02
2018-02-21T15:11:55.428Z,3.82
2018-02-21T15:14:25.503Z,3.70
2018-02-21T15:16:56.909Z,3.56
2018-02-21T15:19:29.979Z,3.60
2018-02-21T15:22:01.320Z,3.65
2018-02-21T15:24:34.583Z,3.72
2018-02-21T15:27:05.099Z,3.59
2018-02-21T15:29:35.092Z,3.41
2018-02-21T15:32:05.283Z,3.21
2018-02-21T15:34:35.141Z,3.21
2018-02-21T15:37:05.197Z,3.27
2018-02-21T15:39:35.154Z,3.35
2018-02-21T15:42:05.710Z,3.34
2018-02-21T15:44:44.272Z,3.30
2018-02-21T15:47:18.223Z,3.08
2018-02-21T15:49:51.209Z,3.11
2018-02-21T15:52:21.719Z,2.92
2018-02-21T15:54:52.274Z,2.91
2018-02-21T15:57:22.792Z,2.81
2018-02-21T15:59:52.762Z,2.67
2018-02-21T16:02:22.922Z,2.59
2018-02-21T16:04:53.296Z,2.69
2018-02-21T16:07:24.131Z,2.65
2018-02-21T16:09:56.363Z,2.62
2018-02-21T16:12:26.327Z,2.74
2018-02-21T16:14:58.149Z,2.75
2018-02-21T16:17:32.322Z,2.53
2018-02-21T16:20:02.516Z,2.60
2018-02-21T16:22:32.954Z,2.51
2018-02-21T16:25:03.836Z,2.54
2018-02-21T16:27:33.763Z,2.51
2018-02-21T16:30:05.717Z,2.43
2018-02-21T16:32:35.688Z,2.33
2018-02-21T16:35:07.671Z,2.25
2018-02-21T16:37:38.921Z,2.31
2018-02-21T16:40:09.013Z,2.32
2018-02-21T16:42:38.840Z,2.52
2018-02-21T16:45:08.629Z,2.83
2018-02-21T16:47:44.261Z,2.97
2018-02-21T16:50:15.950Z,2.68
2018-02-21T16:52:51.374Z,2.56
2018-02-21T16:55:23.117Z,2.44
2018-02-21T16:57:53.030Z,2.29
2018-02-21T17:00:22.994Z,2.21
2018-02-21T17:05:30.897Z,2.19
2018-02-21T17:08:04.958Z,2.25
2018-02-21T17:10:34.578Z,2.21
2018-02-21T17:13:04.626Z,2.18
2018-02-21T17:15:34.673Z,2.15
2018-02-21T17:18:04.545Z,2.24
2018-02-21T17:20:34.435Z,2.08
2018-02-21T17:23:08.826Z,2.02
2018-02-21T17:25:38.712Z,1.94
2018-02-21T17:28:09.273Z,1.91
2018-02-21T17:30:39.219Z,1.83
2018-02-21T17:33:10.433Z,1.78
2018-02-21T17:35:40.300Z,1.69
2018-02-21T17:38:10.132Z,1.68
2018-02-21T17:40:45.451Z,1.56
2018-02-21T17:43:16.544Z,1.52
2018-02-21T17:45:46.550Z,1.50
2018-02-21T17:48:16.830Z,1.49
2018-02-21T17:50:48.158Z,1.45
2018-02-21T17:53:18.224Z,1.44
2018-02-21T17:55:48.089Z,1.37
2018-02-21T18:01:50.526Z,1.37
2018-02-21T18:04:20.404Z,1.36
2018-02-21T18:06:50.292Z,1.31
2018-02-21T18:09:20.153Z,1.28
2018-02-21T18:11:50.300Z,1.37
2018-02-21T18:14:23.081Z,1.37
2018-02-21T18:16:58.859Z,1.40
2018-02-21T18:19:28.737Z,1.46
2018-02-21T18:21:58.677Z,1.34
2018-02-21T18:24:28.738Z,1.14
2018-02-21T18:27:00.189Z,1.12
2018-02-21T18:29:30.266Z,1.02
2018-02-21T18:32:00.293Z,1.04
2018-02-21T18:34:30.227Z,1.02
2018-02-21T18:37:10.054Z,1.07
2018-02-21T18:39:42.163Z,0.97
2018-02-21T18:42:11.991Z,1.05
2018-02-21T18:44:44.368Z,1.00
2018-02-21T18:47:14.780Z,1.00
2018-02-21T18:49:44.924Z,0.94
2018-02-21T18:52:15.172Z,0.89
2018-02-21T18:54:46.082Z,0.81
2018-02-21T18:57:18.450Z,0.83
2018-02-21T18:59:48.435Z,0.78
2018-02-21T19:02:18.475Z,0.75
2018-02-21T19:04:48.444Z,0.69
2018-02-21T19:07:18.304Z,0.67
2018-02-21T19:09:47.926Z,0.66
2018-02-21T19:12:17.863Z,0.65
2018-02-21T19:14:48.766Z,0.62
2018-02-21T19:17:18.774Z,0.56
2018-02-21T19:19:48.798Z,0.40
2018-02-21T19:22:18.660Z,0.35
2018-02-21T19:24:48.640Z,0.30
2018-02-21T19:27:18.476Z,0.38
2018-02-21T19:29:48.377Z,0.49
2018-02-21T19:32:18.845Z,0.54
2018-02-21T19:34:48.869Z,0.56
2018-02-21T19:37:18.827Z,0.54
2018-02-21T19:39:48.845Z,0.41
2018-02-21T19:42:19.178Z,0.36
2018-02-21T19:44:49.787Z,0.40
2018-02-21T19:47:19.739Z,0.28
2018-02-21T19:49:50.006Z,0.24
2018-02-21T19:52:20.022Z,0.29
2018-02-21T19:54:50.015Z,0.33
2018-02-21T19:57:19.827Z,0.32
2018-02-21T19:59:49.687Z,0.34
2018-02-21T20:02:19.958Z,0.31
2018-02-21T20:04:49.786Z,0.33
2018-02-21T20:07:19.760Z,0.39
2018-02-21T20:09:49.840Z,0.42
2018-02-21T20:12:19.724Z,0.41
2018-02-21T20:14:49.594Z,0.45
2018-02-21T20:17:19.528Z,0.40
2018-02-21T20:19:49.554Z,0.46
2018-02-21T20:22:19.643Z,0.52
2018-02-21T20:24:49.660Z,0.48
2018-02-21T20:27:19.972Z,0.43
2018-02-21T20:29:50.178Z,0.46
2018-02-21T20:32:20.273Z,0.50
2018-02-21T20:34:50.444Z,0.46
2018-02-21T20:37:20.778Z,0.43
2018-02-21T20:39:50.999Z,0.46
2018-02-21T20:42:21.110Z,0.41
2018-02-21T20:44:51.344Z,0.43
2018-02-21T20:47:21.456Z,0.46
2018-02-21T20:49:51.387Z,0.44
2018-02-21T20:52:21.296Z,0.41
2018-02-21T20:54:54.196Z,0.43
2018-02-21T20:57:27.662Z,0.40
2018-02-21T20:59:57.503Z,0.46
2018-02-21T21:02:27.337Z,0.49
2018-02-21T21:04:57.183Z,0.52
2018-02-21T21:07:27.006Z,0.56
2018-02-21T21:09:57.496Z,0.51
2018-02-21T21:12:27.957Z,0.56
2018-02-21T21:14:57.851Z,0.55
2018-02-21T21:17:28.638Z,0.55
2018-02-21T21:19:58.520Z,0.57
2018-02-21T21:22:28.471Z,0.54
2018-02-21T21:24:58.276Z,0.52
2018-02-21T21:27:28.066Z,0.54
2018-02-21T21:29:57.892Z,0.56
2018-02-21T21:32:27.723Z,0.60
2018-02-21T21:34:57.553Z,0.62
2018-02-21T21:37:27.423Z,0.64
2018-02-21T21:39:57.687Z,0.73
2018-02-21T21:42:27.840Z,0.65
2018-02-21T21:44:58.032Z,0.68
2018-02-21T21:47:28.134Z,0.73
2018-02-21T21:49:58.111Z,0.74
2018-02-21T21:52:28.520Z,0.70
2018-02-21T21:54:59.176Z,0.77
2018-02-21T21:57:29.210Z,0.83
2018-02-21T21:59:59.148Z,0.84
2018-02-21T22:02:28.955Z,0.86
2018-02-21T22:04:59.043Z,0.87
2018-02-21T22:07:29.192Z,0.87
2018-02-21T22:10:00.768Z,1.01
2018-02-21T22:12:30.616Z,0.80
2018-02-21T22:15:01.797Z,0.84
2018-02-21T22:17:32.453Z,0.86
2018-02-21T22:20:02.680Z,0.63
2018-02-21T22:22:32.241Z,0.53
2018-02-21T22:25:02.293Z,0.33
2018-02-21T22:27:32.216Z,0.30
2018-02-21T22:30:02.026Z,0.07
2018-02-21T22:32:31.821Z,0.06
2018-02-21T22:35:01.918Z,0.11
2018-02-21T22:37:31.709Z,0.11
2018-02-21T22:40:01.542Z,0.07
2018-02-21T22:42:32.279Z,-0.03
2018-02-21T22:45:02.372Z,-0.14
2018-02-21T22:47:32.170Z,-0.21
2018-02-21T22:50:01.996Z,-0.27
2018-02-21T22:52:32.526Z,-0.27
2018-02-21T22:55:02.326Z,-0.24
2018-02-21T22:57:32.144Z,-0.23
2018-02-21T23:00:02.002Z,-0.28
2018-02-21T23:02:31.557Z,-0.21
2018-02-21T23:05:01.373Z,-0.23
2018-02-21T23:07:31.225Z,-0.19
2018-02-21T23:10:01.086Z,-0.30
2018-02-21T23:12:30.941Z,-0.32
2018-02-21T23:15:00.844Z,-0.42
2018-02-21T23:17:30.724Z,-0.46
2018-02-21T23:20:00.288Z,-0.50
2018-02-21T23:22:30.123Z,-0.40
2018-02-21T23:24:59.946Z,-0.52
2018-02-21T23:27:29.758Z,-0.60
2018-02-21T23:29:59.573Z,-0.49
2018-02-21T23:32:29.417Z,-0.42
2018-02-21T23:34:59.286Z,-0.49
2018-02-21T23:37:29.139Z,-0.38
2018-02-21T23:39:58.981Z,-0.45
2018-02-21T23:42:28.784Z,-0.49
2018-02-21T23:44:58.617Z,-0.43
2018-02-21T23:47:28.421Z,-0.38
2018-02-21T23:49:58.250Z,-0.37
2018-02-21T23:52:28.143Z,-0.36
2018-02-21T23:54:59.415Z,-0.28
2018-02-21T23:57:29.238Z,-0.22
2018-02-21T23:59:59.095Z,-0.19
